sensor_id;sensor_type;location;lat;lon;timestamp;P1;durP1;ratioP1;P2;durP2;ratioP2
71941;SDS011;59997;53.300;-6.260;2023-04-30T00:00:22;12.93;;;3.97;;
71941;SDS011;59997;53.300;-6.260;2023-04-30T00:02:48;13.60;;;4.00;;
71941;SDS011;59997;53.300;-6.260;2023-04-30T00:05:13;15.00;;;4.68;;
71941;SDS011;59997;53.300;-6.260;2023-04-30T00:07:39;14.97;;;5.23;;
71941;SDS011;59997;53.300;-6.260;2023-04-30T00:10:07;14.52;;;5.22;;
71941;SDS011;59997;53.300;-6.260;2023-04-30T00:12:34;13.68;;;5.53;;
71941;SDS011;59997;53.300;-6.260;2023-04-30T00:14:59;15.60;;;5.27;;
71941;SDS011;59997;53.300;-6.260;2023-04-30T00:17:25;17.45;;;5.60;;
71941;SDS011;59997;53.300;-6.260;2023-04-30T00:19:51;20.20;;;6.93;;
71941;SDS011;59997;53.300;-6.260;2023-04-30T00:22:16;18.83;;;6.72;;
71941;SDS011;59997;53.300;-6.260;2023-04-30T00:24:42;20.73;;;6.87;;
71941;SDS011;59997;53.300;-6.260;2023-04-30T00:27:07;21.33;;;7.57;;
71941;SDS011;59997;53.300;-6.260;2023-04-30T00:29:33;21.97;;;8.73;;
71941;SDS011;59997;53.300;-6.260;2023-04-30T00:31:58;21.80;;;7.83;;
71941;SDS011;59997;53.300;-6.260;2023-04-30T00:34:24;29.10;;;8.80;;
71941;SDS011;59997;53.300;-6.260;2023-04-30T00:36:49;23.17;;;8.07;;
71941;SDS011;59997;53.300;-6.260;2023-04-30T00:39:15;22.80;;;8.18;;
71941;SDS011;59997;53.300;-6.260;2023-04-30T00:41:40;24.07;;;8.53;;
71941;SDS011;59997;53.300;-6.260;2023-04-30T00:44:06;27.58;;;9.57;;
71941;SDS011;59997;53.300;-6.260;2023-04-30T00:46:32;26.87;;;8.83;;
71941;SDS011;59997;53.300;-6.260;2023-04-30T00:48:57;24.27;;;8.23;;
71941;SDS011;59997;53.300;-6.260;2023-04-30T00:51:26;25.13;;;9.02;;
71941;SDS011;59997;53.300;-6.260;2023-04-30T00:53:53;25.52;;;9.07;;
71941;SDS011;59997;53.300;-6.260;2023-04-30T00:56:18;28.37;;;9.40;;
71941;SDS011;59997;53.300;-6.260;2023-04-30T00:58:45;23.95;;;8.23;;
71941;SDS011;59997;53.300;-6.260;2023-04-30T01:01:10;24.48;;;8.35;;
71941;SDS011;59997;53.300;-6.260;2023-04-30T01:03:36;23.00;;;8.17;;
71941;SDS011;59997;53.300;-6.260;2023-04-30T01:06:01;23.00;;;7.53;;
71941;SDS011;59997;53.300;-6.260;2023-04-30T01:08:30;19.20;;;7.32;;
71941;SDS011;59997;53.300;-6.260;2023-04-30T01:14:22;20.40;;;7.47;;
71941;SDS011;59997;53.300;-6.260;2023-04-30T01:17:02;24.10;;;7.90;;
71941;SDS011;59997;53.300;-6.260;2023-04-30T01:22:09;22.20;;;8.20;;
71941;SDS011;59997;53.300;-6.260;2023-04-30T01:30:14;20.47;;;6.97;;
71941;SDS011;59997;53.300;-6.260;2023-04-30T01:32:41;19.67;;;7.15;;
71941;SDS011;59997;53.300;-6.260;2023-04-30T01:35:06;18.03;;;6.33;;
71941;SDS011;59997;53.300;-6.260;2023-04-30T01:40:33;17.10;;;5.72;;
71941;SDS011;59997;53.300;-6.260;2023-04-30T01:45:31;18.60;;;6.15;;
71941;SDS011;59997;53.300;-6.260;2023-04-30T01:48:27;17.25;;;5.07;;
71941;SDS011;59997;53.300;-6.260;2023-04-30T01:51:15;16.90;;;4.97;;
71941;SDS011;59997;53.300;-6.260;2023-04-30T01:53:47;17.15;;;5.80;;
71941;SDS011;59997;53.300;-6.260;2023-04-30T01:56:35;17.33;;;5.67;;
71941;SDS011;59997;53.300;-6.260;2023-04-30T01:59:05;18.83;;;5.60;;
71941;SDS011;59997;53.300;-6.260;2023-04-30T02:01:32;15.10;;;5.00;;
71941;SDS011;59997;53.300;-6.260;2023-04-30T02:03:58;14.32;;;4.50;;
71941;SDS011;59997;53.300;-6.260;2023-04-30T02:06:24;16.63;;;4.63;;
71941;SDS011;59997;53.300;-6.260;2023-04-30T02:08:54;13.75;;;4.72;;
71941;SDS011;59997;53.300;-6.260;2023-04-30T02:11:20;16.48;;;4.85;;
71941;SDS011;59997;53.300;-6.260;2023-04-30T02:13:48;16.92;;;5.50;;
71941;SDS011;59997;53.300;-6.260;2023-04-30T02:16:14;14.97;;;4.97;;
71941;SDS011;59997;53.300;-6.260;2023-04-30T02:18:40;15.05;;;4.75;;
71941;SDS011;59997;53.300;-6.260;2023-04-30T02:21:05;15.67;;;4.77;;
71941;SDS011;59997;53.300;-6.260;2023-04-30T02:23:31;14.93;;;4.33;;
71941;SDS011;59997;53.300;-6.260;2023-04-30T02:25:56;12.82;;;4.20;;
71941;SDS011;59997;53.300;-6.260;2023-04-30T02:28:21;11.63;;;3.67;;
71941;SDS011;59997;53.300;-6.260;2023-04-30T02:30:47;15.10;;;3.87;;
71941;SDS011;59997;53.300;-6.260;2023-04-30T02:33:12;14.07;;;4.20;;
71941;SDS011;59997;53.300;-6.260;2023-04-30T02:35:41;11.27;;;3.90;;
71941;SDS011;59997;53.300;-6.260;2023-04-30T02:38:07;10.93;;;3.40;;
71941;SDS011;59997;53.300;-6.260;2023-04-30T02:40:32;13.98;;;3.88;;
71941;SDS011;59997;53.300;-6.260;2023-04-30T02:42:57;12.37;;;3.33;;
71941;SDS011;59997;53.300;-6.260;2023-04-30T02:45:25;15.55;;;3.60;;
71941;SDS011;59997;53.300;-6.260;2023-04-30T02:47:50;9.93;;;3.10;;
71941;SDS011;59997;53.300;-6.260;2023-04-30T02:50:16;9.43;;;2.30;;
71941;SDS011;59997;53.300;-6.260;2023-04-30T02:52:43;10.30;;;2.60;;
71941;SDS011;59997;53.300;-6.260;2023-04-30T02:55:11;7.77;;;2.20;;
71941;SDS011;59997;53.300;-6.260;2023-04-30T02:57:36;8.15;;;1.90;;
71941;SDS011;59997;53.300;-6.260;2023-04-30T03:00:02;9.13;;;2.50;;
71941;SDS011;59997;53.300;-6.260;2023-04-30T03:02:27;7.73;;;1.97;;
71941;SDS011;59997;53.300;-6.260;2023-04-30T03:04:53;8.57;;;1.80;;
71941;SDS011;59997;53.300;-6.260;2023-04-30T03:07:18;8.67;;;2.20;;
71941;SDS011;59997;53.300;-6.260;2023-04-30T03:09:44;6.97;;;1.93;;
71941;SDS011;59997;53.300;-6.260;2023-04-30T03:12:10;9.40;;;1.83;;
71941;SDS011;59997;53.300;-6.260;2023-04-30T03:14:36;7.90;;;2.10;;
71941;SDS011;59997;53.300;-6.260;2023-04-30T03:17:01;8.27;;;1.90;;
71941;SDS011;59997;53.300;-6.260;2023-04-30T03:19:27;5.63;;;1.10;;
71941;SDS011;59997;53.300;-6.260;2023-04-30T03:21:53;5.93;;;1.40;;
71941;SDS011;59997;53.300;-6.260;2023-04-30T03:24:18;6.40;;;1.55;;
71941;SDS011;59997;53.300;-6.260;2023-04-30T03:26:44;6.00;;;1.27;;
71941;SDS011;59997;53.300;-6.260;2023-04-30T03:29:10;5.78;;;1.60;;
71941;SDS011;59997;53.300;-6.260;2023-04-30T03:31:36;9.00;;;1.57;;
71941;SDS011;59997;53.300;-6.260;2023-04-30T03:34:01;7.40;;;1.30;;
71941;SDS011;59997;53.300;-6.260;2023-04-30T03:36:26;5.70;;;1.30;;
71941;SDS011;59997;53.300;-6.260;2023-04-30T03:38:52;5.53;;;1.20;;
71941;SDS011;59997;53.300;-6.260;2023-04-30T03:41:17;5.43;;;1.23;;
71941;SDS011;59997;53.300;-6.260;2023-04-30T03:43:43;5.23;;;1.07;;
71941;SDS011;59997;53.300;-6.260;2023-04-30T03:46:08;6.80;;;1.40;;
71941;SDS011;59997;53.300;-6.260;2023-04-30T03:48:34;5.70;;;0.87;;
71941;SDS011;59997;53.300;-6.260;2023-04-30T03:50:59;5.45;;;1.08;;
71941;SDS011;59997;53.300;-6.260;2023-04-30T03:53:25;5.63;;;1.00;;
71941;SDS011;59997;53.300;-6.260;2023-04-30T03:55:51;4.67;;;0.90;;
71941;SDS011;59997;53.300;-6.260;2023-04-30T03:58:17;5.80;;;0.80;;
71941;SDS011;59997;53.300;-6.260;2023-04-30T04:00:43;4.90;;;0.85;;
71941;SDS011;59997;53.300;-6.260;2023-04-30T04:03:10;5.37;;;0.70;;
71941;SDS011;59997;53.300;-6.260;2023-04-30T04:05:35;5.63;;;0.85;;
71941;SDS011;59997;53.300;-6.260;2023-04-30T04:08:01;7.17;;;0.83;;
71941;SDS011;59997;53.300;-6.260;2023-04-30T04:10:26;4.80;;;0.87;;
71941;SDS011;59997;53.300;-6.260;2023-04-30T04:12:51;4.87;;;0.70;;
71941;SDS011;59997;53.300;-6.260;2023-04-30T04:15:17;4.73;;;0.83;;
71941;SDS011;59997;53.300;-6.260;2023-04-30T04:17:42;4.33;;;0.60;;
71941;SDS011;59997;53.300;-6.260;2023-04-30T04:20:08;4.13;;;0.70;;
71941;SDS011;59997;53.300;-6.260;2023-04-30T04:22:33;4.40;;;0.57;;
71941;SDS011;59997;53.300;-6.260;2023-04-30T04:24:59;3.37;;;0.60;;
71941;SDS011;59997;53.300;-6.260;2023-04-30T04:27:25;3.97;;;0.60;;
71941;SDS011;59997;53.300;-6.260;2023-04-30T04:29:50;3.83;;;0.60;;
71941;SDS011;59997;53.300;-6.260;2023-04-30T04:32:17;3.28;;;0.40;;
71941;SDS011;59997;53.300;-6.260;2023-04-30T04:34:42;5.70;;;0.60;;
71941;SDS011;59997;53.300;-6.260;2023-04-30T04:37:08;3.73;;;0.63;;
71941;SDS011;59997;53.300;-6.260;2023-04-30T04:39:34;3.80;;;0.60;;
71941;SDS011;59997;53.300;-6.260;2023-04-30T04:42:01;3.70;;;0.60;;
71941;SDS011;59997;53.300;-6.260;2023-04-30T04:44:27;3.13;;;0.50;;
71941;SDS011;59997;53.300;-6.260;2023-04-30T04:46:53;5.93;;;0.70;;
71941;SDS011;59997;53.300;-6.260;2023-04-30T04:49:18;4.67;;;0.70;;
71941;SDS011;59997;53.300;-6.260;2023-04-30T04:51:44;3.47;;;0.60;;
71941;SDS011;59997;53.300;-6.260;2023-04-30T04:54:10;3.63;;;0.60;;
71941;SDS011;59997;53.300;-6.260;2023-04-30T04:56:36;4.38;;;0.40;;
71941;SDS011;59997;53.300;-6.260;2023-04-30T04:59:01;4.10;;;0.63;;
71941;SDS011;59997;53.300;-6.260;2023-04-30T05:01:27;6.00;;;0.50;;
71941;SDS011;59997;53.300;-6.260;2023-04-30T05:03:53;2.90;;;0.40;;
71941;SDS011;59997;53.300;-6.260;2023-04-30T05:06:18;3.07;;;0.47;;
71941;SDS011;59997;53.300;-6.260;2023-04-30T05:08:44;3.47;;;0.50;;
71941;SDS011;59997;53.300;-6.260;2023-04-30T05:11:10;3.47;;;0.40;;
71941;SDS011;59997;53.300;-6.260;2023-04-30T05:13:36;3.97;;;0.60;;
71941;SDS011;59997;53.300;-6.260;2023-04-30T05:16:01;3.97;;;0.60;;
71941;SDS011;59997;53.300;-6.260;2023-04-30T05:18:27;4.23;;;0.70;;
71941;SDS011;59997;53.300;-6.260;2023-04-30T05:20:53;4.28;;;0.85;;
71941;SDS011;59997;53.300;-6.260;2023-04-30T05:23:18;4.17;;;0.60;;
71941;SDS011;59997;53.300;-6.260;2023-04-30T05:25:43;4.50;;;0.90;;
71941;SDS011;59997;53.300;-6.260;2023-04-30T05:28:09;4.63;;;0.70;;
71941;SDS011;59997;53.300;-6.260;2023-04-30T05:30:35;4.27;;;0.63;;
71941;SDS011;59997;53.300;-6.260;2023-04-30T05:33:01;4.78;;;0.90;;
71941;SDS011;59997;53.300;-6.260;2023-04-30T05:35:26;7.57;;;1.00;;
71941;SDS011;59997;53.300;-6.260;2023-04-30T05:37:52;4.30;;;0.80;;
71941;SDS011;59997;53.300;-6.260;2023-04-30T05:40:17;4.40;;;0.90;;
71941;SDS011;59997;53.300;-6.260;2023-04-30T05:42:43;5.20;;;1.10;;
71941;SDS011;59997;53.300;-6.260;2023-04-30T05:45:09;5.10;;;0.70;;
71941;SDS011;59997;53.300;-6.260;2023-04-30T05:47:36;4.07;;;0.50;;
71941;SDS011;59997;53.300;-6.260;2023-04-30T05:50:02;5.45;;;0.90;;
71941;SDS011;59997;53.300;-6.260;2023-04-30T05:52:27;5.47;;;0.90;;
71941;SDS011;59997;53.300;-6.260;2023-04-30T05:54:53;5.37;;;0.70;;
71941;SDS011;59997;53.300;-6.260;2023-04-30T05:57:18;4.40;;;0.70;;
71941;SDS011;59997;53.300;-6.260;2023-04-30T05:59:44;3.53;;;0.60;;
71941;SDS011;59997;53.300;-6.260;2023-04-30T06:02:09;3.97;;;0.70;;
71941;SDS011;59997;53.300;-6.260;2023-04-30T06:04:35;5.37;;;1.00;;
71941;SDS011;59997;53.300;-6.260;2023-04-30T06:07:00;4.27;;;0.87;;
71941;SDS011;59997;53.300;-6.260;2023-04-30T06:09:26;4.27;;;0.80;;
71941;SDS011;59997;53.300;-6.260;2023-04-30T06:11:51;4.30;;;0.60;;
71941;SDS011;59997;53.300;-6.260;2023-04-30T06:14:17;4.40;;;0.90;;
71941;SDS011;59997;53.300;-6.260;2023-04-30T06:16:44;3.83;;;0.80;;
71941;SDS011;59997;53.300;-6.260;2023-04-30T06:19:10;3.53;;;0.68;;
71941;SDS011;59997;53.300;-6.260;2023-04-30T06:21:35;4.45;;;0.63;;
71941;SDS011;59997;53.300;-6.260;2023-04-30T06:24:01;3.43;;;0.80;;
71941;SDS011;59997;53.300;-6.260;2023-04-30T06:26:27;4.97;;;0.70;;
71941;SDS011;59997;53.300;-6.260;2023-04-30T06:28:52;4.53;;;0.80;;
71941;SDS011;59997;53.300;-6.260;2023-04-30T06:31:18;4.90;;;0.90;;
71941;SDS011;59997;53.300;-6.260;2023-04-30T06:33:43;4.57;;;0.90;;
71941;SDS011;59997;53.300;-6.260;2023-04-30T06:36:09;3.90;;;0.80;;
71941;SDS011;59997;53.300;-6.260;2023-04-30T06:38:35;3.97;;;0.70;;
71941;SDS011;59997;53.300;-6.260;2023-04-30T06:41:00;4.32;;;0.90;;
71941;SDS011;59997;53.300;-6.260;2023-04-30T06:43:26;4.77;;;0.80;;
71941;SDS011;59997;53.300;-6.260;2023-04-30T06:45:51;5.03;;;0.83;;
71941;SDS011;59997;53.300;-6.260;2023-04-30T06:48:17;5.25;;;0.88;;
71941;SDS011;59997;53.300;-6.260;2023-04-30T06:50:42;4.50;;;0.90;;
71941;SDS011;59997;53.300;-6.260;2023-04-30T06:53:11;4.20;;;0.90;;
71941;SDS011;59997;53.300;-6.260;2023-04-30T06:55:40;4.68;;;0.90;;
71941;SDS011;59997;53.300;-6.260;2023-04-30T06:58:06;4.70;;;1.20;;
71941;SDS011;59997;53.300;-6.260;2023-04-30T07:00:32;4.40;;;0.80;;
71941;SDS011;59997;53.300;-6.260;2023-04-30T07:02:58;4.13;;;0.70;;
71941;SDS011;59997;53.300;-6.260;2023-04-30T07:05:28;4.10;;;0.90;;
71941;SDS011;59997;53.300;-6.260;2023-04-30T07:07:55;3.33;;;0.68;;
71941;SDS011;59997;53.300;-6.260;2023-04-30T07:10:21;3.95;;;0.80;;
71941;SDS011;59997;53.300;-6.260;2023-04-30T07:12:47;3.53;;;0.75;;
71941;SDS011;59997;53.300;-6.260;2023-04-30T07:15:12;3.90;;;0.70;;
71941;SDS011;59997;53.300;-6.260;2023-04-30T07:17:38;5.27;;;0.90;;
71941;SDS011;59997;53.300;-6.260;2023-04-30T07:20:05;4.28;;;1.00;;
71941;SDS011;59997;53.300;-6.260;2023-04-30T07:22:32;4.88;;;0.90;;
71941;SDS011;59997;53.300;-6.260;2023-04-30T07:24:57;5.25;;;1.10;;
71941;SDS011;59997;53.300;-6.260;2023-04-30T07:27:23;3.93;;;0.87;;
71941;SDS011;59997;53.300;-6.260;2023-04-30T07:29:50;6.67;;;1.27;;
71941;SDS011;59997;53.300;-6.260;2023-04-30T07:32:15;3.45;;;0.70;;
71941;SDS011;59997;53.300;-6.260;2023-04-30T07:34:41;4.40;;;1.20;;
71941;SDS011;59997;53.300;-6.260;2023-04-30T07:37:07;3.80;;;0.87;;
71941;SDS011;59997;53.300;-6.260;2023-04-30T07:39:33;4.60;;;0.88;;
71941;SDS011;59997;53.300;-6.260;2023-04-30T07:42:00;3.90;;;1.00;;
71941;SDS011;59997;53.300;-6.260;2023-04-30T07:44:26;4.10;;;0.97;;
71941;SDS011;59997;53.300;-6.260;2023-04-30T07:46:52;4.43;;;0.80;;
71941;SDS011;59997;53.300;-6.260;2023-04-30T07:49:17;4.73;;;1.03;;
71941;SDS011;59997;53.300;-6.260;2023-04-30T07:51:43;5.37;;;1.10;;
71941;SDS011;59997;53.300;-6.260;2023-04-30T07:54:08;4.88;;;1.05;;
71941;SDS011;59997;53.300;-6.260;2023-04-30T07:56:34;9.20;;;3.43;;
71941;SDS011;59997;53.300;-6.260;2023-04-30T07:59:00;4.50;;;0.90;;
71941;SDS011;59997;53.300;-6.260;2023-04-30T08:01:25;5.70;;;1.60;;
71941;SDS011;59997;53.300;-6.260;2023-04-30T08:03:51;4.13;;;0.90;;
71941;SDS011;59997;53.300;-6.260;2023-04-30T08:06:16;4.43;;;0.90;;
71941;SDS011;59997;53.300;-6.260;2023-04-30T08:08:42;6.00;;;1.03;;
71941;SDS011;59997;53.300;-6.260;2023-04-30T08:11:07;5.90;;;1.00;;
71941;SDS011;59997;53.300;-6.260;2023-04-30T08:13:33;4.63;;;0.90;;
71941;SDS011;59997;53.300;-6.260;2023-04-30T08:15:58;4.97;;;0.77;;
71941;SDS011;59997;53.300;-6.260;2023-04-30T08:18:24;6.43;;;1.20;;
71941;SDS011;59997;53.300;-6.260;2023-04-30T08:20:49;4.77;;;0.90;;
71941;SDS011;59997;53.300;-6.260;2023-04-30T08:23:15;4.17;;;0.90;;
71941;SDS011;59997;53.300;-6.260;2023-04-30T08:25:41;4.47;;;0.90;;
71941;SDS011;59997;53.300;-6.260;2023-04-30T08:28:06;4.30;;;0.83;;
71941;SDS011;59997;53.300;-6.260;2023-04-30T08:30:32;4.70;;;0.90;;
71941;SDS011;59997;53.300;-6.260;2023-04-30T08:32:57;5.10;;;1.00;;
71941;SDS011;59997;53.300;-6.260;2023-04-30T08:35:23;4.70;;;0.73;;
71941;SDS011;59997;53.300;-6.260;2023-04-30T08:37:48;4.10;;;0.80;;
71941;SDS011;59997;53.300;-6.260;2023-04-30T08:40:14;5.53;;;2.40;;
71941;SDS011;59997;53.300;-6.260;2023-04-30T08:42:41;4.60;;;1.10;;
71941;SDS011;59997;53.300;-6.260;2023-04-30T08:45:10;4.45;;;0.93;;
71941;SDS011;59997;53.300;-6.260;2023-04-30T08:47:37;4.20;;;0.93;;
71941;SDS011;59997;53.300;-6.260;2023-04-30T08:50:03;3.80;;;0.80;;
71941;SDS011;59997;53.300;-6.260;2023-04-30T08:52:33;4.10;;;1.02;;
71941;SDS011;59997;53.300;-6.260;2023-04-30T08:55:02;4.43;;;1.45;;
71941;SDS011;59997;53.300;-6.260;2023-04-30T08:57:31;6.20;;;0.90;;
71941;SDS011;59997;53.300;-6.260;2023-04-30T08:59:57;4.43;;;1.07;;
71941;SDS011;59997;53.300;-6.260;2023-04-30T09:02:22;4.73;;;0.80;;
71941;SDS011;59997;53.300;-6.260;2023-04-30T09:04:48;3.90;;;0.68;;
71941;SDS011;59997;53.300;-6.260;2023-04-30T09:07:14;5.13;;;1.00;;
71941;SDS011;59997;53.300;-6.260;2023-04-30T09:09:41;6.15;;;0.93;;
71941;SDS011;59997;53.300;-6.260;2023-04-30T09:12:14;5.63;;;0.90;;
71941;SDS011;59997;53.300;-6.260;2023-04-30T09:14:56;6.10;;;1.10;;
71941;SDS011;59997;53.300;-6.260;2023-04-30T09:17:26;7.38;;;1.05;;
71941;SDS011;59997;53.300;-6.260;2023-04-30T09:19:52;6.07;;;1.00;;
71941;SDS011;59997;53.300;-6.260;2023-04-30T09:22:21;4.28;;;0.90;;
71941;SDS011;59997;53.300;-6.260;2023-04-30T09:24:48;5.82;;;1.17;;
71941;SDS011;59997;53.300;-6.260;2023-04-30T09:27:18;5.72;;;1.90;;
71941;SDS011;59997;53.300;-6.260;2023-04-30T09:29:45;5.63;;;1.50;;
71941;SDS011;59997;53.300;-6.260;2023-04-30T09:32:11;5.82;;;1.65;;
71941;SDS011;59997;53.300;-6.260;2023-04-30T09:34:38;6.05;;;1.80;;
71941;SDS011;59997;53.300;-6.260;2023-04-30T09:37:03;5.30;;;1.65;;
71941;SDS011;59997;53.300;-6.260;2023-04-30T09:39:29;6.03;;;1.43;;
71941;SDS011;59997;53.300;-6.260;2023-04-30T09:42:10;6.47;;;1.75;;
71941;SDS011;59997;53.300;-6.260;2023-04-30T09:44:36;6.68;;;1.50;;
71941;SDS011;59997;53.300;-6.260;2023-04-30T09:47:04;5.97;;;1.30;;
71941;SDS011;59997;53.300;-6.260;2023-04-30T09:49:36;5.00;;;0.83;;
71941;SDS011;59997;53.300;-6.260;2023-04-30T09:52:02;4.40;;;0.90;;
71941;SDS011;59997;53.300;-6.260;2023-04-30T09:54:29;4.97;;;0.85;;
71941;SDS011;59997;53.300;-6.260;2023-04-30T09:56:56;6.87;;;1.20;;
71941;SDS011;59997;53.300;-6.260;2023-04-30T09:59:32;4.72;;;1.17;;
71941;SDS011;59997;53.300;-6.260;2023-04-30T10:02:09;5.78;;;1.20;;
71941;SDS011;59997;53.300;-6.260;2023-04-30T10:04:39;4.40;;;1.48;;
71941;SDS011;59997;53.300;-6.260;2023-04-30T10:07:08;5.25;;;2.00;;
71941;SDS011;59997;53.300;-6.260;2023-04-30T10:09:38;5.03;;;1.63;;
71941;SDS011;59997;53.300;-6.260;2023-04-30T10:12:12;6.13;;;1.95;;
71941;SDS011;59997;53.300;-6.260;2023-04-30T10:14:39;4.80;;;1.70;;
71941;SDS011;59997;53.300;-6.260;2023-04-30T10:17:13;4.68;;;1.80;;
71941;SDS011;59997;53.300;-6.260;2023-04-30T10:19:42;4.78;;;1.80;;
71941;SDS011;59997;53.300;-6.260;2023-04-30T10:22:12;5.20;;;2.20;;
71941;SDS011;59997;53.300;-6.260;2023-04-30T10:24:38;7.93;;;6.07;;
71941;SDS011;59997;53.300;-6.260;2023-04-30T10:27:04;5.70;;;1.50;;
71941;SDS011;59997;53.300;-6.260;2023-04-30T10:29:29;5.90;;;1.80;;
71941;SDS011;59997;53.300;-6.260;2023-04-30T10:31:55;5.00;;;1.73;;
71941;SDS011;59997;53.300;-6.260;2023-04-30T10:37:30;5.63;;;1.53;;
71941;SDS011;59997;53.300;-6.260;2023-04-30T10:40:04;6.40;;;1.20;;
71941;SDS011;59997;53.300;-6.260;2023-04-30T10:42:33;8.15;;;1.67;;
71941;SDS011;59997;53.300;-6.260;2023-04-30T10:45:00;5.47;;;1.38;;
71941;SDS011;59997;53.300;-6.260;2023-04-30T10:47:29;6.88;;;1.30;;
71941;SDS011;59997;53.300;-6.260;2023-04-30T10:50:02;5.93;;;1.60;;
71941;SDS011;59997;53.300;-6.260;2023-04-30T10:52:28;5.03;;;0.90;;
71941;SDS011;59997;53.300;-6.260;2023-04-30T10:54:54;5.78;;;1.40;;
71941;SDS011;59997;53.300;-6.260;2023-04-30T10:57:19;5.87;;;1.20;;
71941;SDS011;59997;53.300;-6.260;2023-04-30T11:02:14;5.63;;;1.25;;
71941;SDS011;59997;53.300;-6.260;2023-04-30T11:07:34;5.97;;;2.00;;
71941;SDS011;59997;53.300;-6.260;2023-04-30T11:10:00;6.17;;;1.50;;
71941;SDS011;59997;53.300;-6.260;2023-04-30T11:12:26;6.78;;;1.30;;
71941;SDS011;59997;53.300;-6.260;2023-04-30T11:15:14;5.25;;;1.40;;
71941;SDS011;59997;53.300;-6.260;2023-04-30T11:17:59;5.82;;;1.10;;
71941;SDS011;59997;53.300;-6.260;2023-04-30T11:20:25;6.17;;;1.60;;
71941;SDS011;59997;53.300;-6.260;2023-04-30T11:25:42;6.90;;;1.17;;
71941;SDS011;59997;53.300;-6.260;2023-04-30T11:28:16;5.65;;;1.20;;
71941;SDS011;59997;53.300;-6.260;2023-04-30T11:33:28;5.65;;;0.98;;
71941;SDS011;59997;53.300;-6.260;2023-04-30T11:35:55;5.10;;;1.15;;
71941;SDS011;59997;53.300;-6.260;2023-04-30T11:38:25;4.77;;;1.43;;
71941;SDS011;59997;53.300;-6.260;2023-04-30T11:40:55;6.13;;;1.40;;
71941;SDS011;59997;53.300;-6.260;2023-04-30T11:45:58;6.40;;;1.70;;
71941;SDS011;59997;53.300;-6.260;2023-04-30T11:48:36;6.15;;;1.60;;
71941;SDS011;59997;53.300;-6.260;2023-04-30T11:51:03;7.03;;;1.20;;
71941;SDS011;59997;53.300;-6.260;2023-04-30T11:53:44;5.95;;;1.67;;
71941;SDS011;59997;53.300;-6.260;2023-04-30T11:56:10;7.72;;;1.70;;
71941;SDS011;59997;53.300;-6.260;2023-04-30T11:58:36;6.47;;;1.67;;
71941;SDS011;59997;53.300;-6.260;2023-04-30T12:01:06;6.82;;;1.58;;
71941;SDS011;59997;53.300;-6.260;2023-04-30T12:03:42;4.97;;;1.00;;
71941;SDS011;59997;53.300;-6.260;2023-04-30T12:06:20;5.45;;;1.13;;
71941;SDS011;59997;53.300;-6.260;2023-04-30T12:08:46;6.57;;;1.10;;
71941;SDS011;59997;53.300;-6.260;2023-04-30T12:11:19;5.93;;;1.30;;
71941;SDS011;59997;53.300;-6.260;2023-04-30T12:16:21;4.50;;;0.88;;
71941;SDS011;59997;53.300;-6.260;2023-04-30T12:18:48;4.63;;;0.93;;
71941;SDS011;59997;53.300;-6.260;2023-04-30T12:21:15;5.15;;;0.88;;
71941;SDS011;59997;53.300;-6.260;2023-04-30T12:23:42;4.80;;;1.45;;
71941;SDS011;59997;53.300;-6.260;2023-04-30T12:26:09;5.28;;;1.27;;
71941;SDS011;59997;53.300;-6.260;2023-04-30T12:28:34;4.80;;;1.60;;
71941;SDS011;59997;53.300;-6.260;2023-04-30T12:31:00;5.70;;;1.20;;
71941;SDS011;59997;53.300;-6.260;2023-04-30T12:33:29;5.20;;;1.13;;
71941;SDS011;59997;53.300;-6.260;2023-04-30T12:35:55;7.90;;;1.52;;
71941;SDS011;59997;53.300;-6.260;2023-04-30T12:38:23;7.65;;;1.65;;
71941;SDS011;59997;53.300;-6.260;2023-04-30T12:40:48;7.33;;;1.40;;
71941;SDS011;59997;53.300;-6.260;2023-04-30T12:43:15;5.35;;;1.40;;
71941;SDS011;59997;53.300;-6.260;2023-04-30T12:45:45;7.30;;;1.92;;
71941;SDS011;59997;53.300;-6.260;2023-04-30T12:48:21;4.72;;;1.63;;
71941;SDS011;59997;53.300;-6.260;2023-04-30T12:50:52;5.20;;;1.40;;
71941;SDS011;59997;53.300;-6.260;2023-04-30T12:53:25;8.73;;;1.80;;
71941;SDS011;59997;53.300;-6.260;2023-04-30T12:56:07;6.10;;;1.13;;
71941;SDS011;59997;53.300;-6.260;2023-04-30T12:58:36;6.10;;;1.23;;
71941;SDS011;59997;53.300;-6.260;2023-04-30T13:01:02;17.42;;;11.52;;
71941;SDS011;59997;53.300;-6.260;2023-04-30T13:03:28;4.67;;;0.80;;
71941;SDS011;59997;53.300;-6.260;2023-04-30T13:05:53;5.72;;;1.10;;
71941;SDS011;59997;53.300;-6.260;2023-04-30T13:08:19;4.43;;;1.30;;
71941;SDS011;59997;53.300;-6.260;2023-04-30T13:10:45;5.00;;;1.20;;
71941;SDS011;59997;53.300;-6.260;2023-04-30T13:13:12;4.55;;;1.10;;
71941;SDS011;59997;53.300;-6.260;2023-04-30T13:15:39;4.97;;;1.23;;
71941;SDS011;59997;53.300;-6.260;2023-04-30T13:18:05;5.15;;;1.30;;
71941;SDS011;59997;53.300;-6.260;2023-04-30T13:20:34;5.25;;;1.23;;
71941;SDS011;59997;53.300;-6.260;2023-04-30T13:23:00;4.75;;;1.42;;
71941;SDS011;59997;53.300;-6.260;2023-04-30T13:25:26;5.77;;;1.30;;
71941;SDS011;59997;53.300;-6.260;2023-04-30T13:27:51;5.20;;;1.10;;
71941;SDS011;59997;53.300;-6.260;2023-04-30T13:30:17;5.40;;;1.40;;
71941;SDS011;59997;53.300;-6.260;2023-04-30T13:32:42;6.13;;;1.60;;
71941;SDS011;59997;53.300;-6.260;2023-04-30T13:35:09;5.80;;;1.48;;
71941;SDS011;59997;53.300;-6.260;2023-04-30T13:37:35;4.50;;;0.97;;
71941;SDS011;59997;53.300;-6.260;2023-04-30T13:40:01;5.50;;;1.15;;
71941;SDS011;59997;53.300;-6.260;2023-04-30T13:42:28;5.15;;;1.20;;
71941;SDS011;59997;53.300;-6.260;2023-04-30T13:44:54;4.30;;;1.10;;
71941;SDS011;59997;53.300;-6.260;2023-04-30T13:47:20;6.40;;;1.00;;
71941;SDS011;59997;53.300;-6.260;2023-04-30T13:49:45;5.30;;;0.93;;
71941;SDS011;59997;53.300;-6.260;2023-04-30T13:52:11;15.23;;;3.77;;
71941;SDS011;59997;53.300;-6.260;2023-04-30T13:54:37;5.22;;;0.98;;
71941;SDS011;59997;53.300;-6.260;2023-04-30T13:57:03;4.90;;;1.25;;
71941;SDS011;59997;53.300;-6.260;2023-04-30T13:59:29;4.57;;;1.08;;
71941;SDS011;59997;53.300;-6.260;2023-04-30T14:01:55;7.53;;;2.07;;
71941;SDS011;59997;53.300;-6.260;2023-04-30T14:04:21;5.00;;;1.90;;
71941;SDS011;59997;53.300;-6.260;2023-04-30T14:06:46;5.47;;;1.10;;
71941;SDS011;59997;53.300;-6.260;2023-04-30T14:09:13;6.63;;;1.10;;
71941;SDS011;59997;53.300;-6.260;2023-04-30T14:11:39;6.03;;;0.90;;
71941;SDS011;59997;53.300;-6.260;2023-04-30T14:14:06;5.60;;;1.20;;
71941;SDS011;59997;53.300;-6.260;2023-04-30T14:16:32;7.10;;;1.95;;
71941;SDS011;59997;53.300;-6.260;2023-04-30T14:18:58;7.60;;;1.20;;
71941;SDS011;59997;53.300;-6.260;2023-04-30T14:21:23;6.47;;;1.60;;
71941;SDS011;59997;53.300;-6.260;2023-04-30T14:23:49;4.80;;;1.50;;
71941;SDS011;59997;53.300;-6.260;2023-04-30T14:26:16;6.10;;;1.40;;
71941;SDS011;59997;53.300;-6.260;2023-04-30T14:28:41;8.65;;;1.45;;
71941;SDS011;59997;53.300;-6.260;2023-04-30T14:31:07;6.20;;;1.40;;
71941;SDS011;59997;53.300;-6.260;2023-04-30T14:33:34;6.85;;;1.50;;
71941;SDS011;59997;53.300;-6.260;2023-04-30T14:35:59;6.47;;;1.17;;
71941;SDS011;59997;53.300;-6.260;2023-04-30T14:38:25;6.37;;;1.33;;
71941;SDS011;59997;53.300;-6.260;2023-04-30T14:40:51;6.63;;;1.63;;
71941;SDS011;59997;53.300;-6.260;2023-04-30T14:43:16;4.60;;;1.07;;
71941;SDS011;59997;53.300;-6.260;2023-04-30T14:45:42;8.52;;;1.30;;
71941;SDS011;59997;53.300;-6.260;2023-04-30T14:48:09;5.50;;;1.05;;
71941;SDS011;59997;53.300;-6.260;2023-04-30T14:50:35;6.80;;;1.00;;
71941;SDS011;59997;53.300;-6.260;2023-04-30T14:53:01;5.20;;;0.85;;
71941;SDS011;59997;53.300;-6.260;2023-04-30T14:55:28;6.35;;;1.00;;
71941;SDS011;59997;53.300;-6.260;2023-04-30T14:57:53;4.77;;;1.23;;
71941;SDS011;59997;53.300;-6.260;2023-04-30T15:00:19;5.53;;;1.30;;
71941;SDS011;59997;53.300;-6.260;2023-04-30T15:02:45;7.80;;;1.43;;
71941;SDS011;59997;53.300;-6.260;2023-04-30T15:05:11;7.07;;;1.40;;
71941;SDS011;59997;53.300;-6.260;2023-04-30T15:07:36;6.18;;;1.10;;